createdAt,value
2023-02-03T00:01:52.629Z,8.50
2023-02-03T00:04:19.213Z,8.45
2023-02-03T00:06:46.153Z,6.38
2023-02-03T00:09:12.715Z,5.03
2023-02-03T00:11:40.578Z,6.75
2023-02-03T00:14:08.050Z,6.57
2023-02-03T00:16:35.029Z,5.72
2023-02-03T00:19:01.665Z,5.65
2023-02-03T00:21:28.107Z,5.35
2023-02-03T00:23:54.806Z,6.18
2023-02-03T00:26:21.414Z,4.63
2023-02-03T00:28:49.251Z,5.20
2023-02-03T00:31:16.992Z,5.00
2023-02-03T00:33:43.527Z,6.93
2023-02-03T00:36:10.609Z,7.65
2023-02-03T00:38:37.051Z,6.40
2023-02-03T00:41:03.755Z,5.25
2023-02-03T00:43:30.391Z,6.47
2023-02-03T00:45:58.345Z,5.30
2023-02-03T00:48:24.950Z,5.20
2023-02-03T00:50:51.451Z,5.70
2023-02-03T00:53:17.996Z,7.20
2023-02-03T00:55:44.473Z,4.50
2023-02-03T00:58:11.015Z,6.05
2023-02-03T01:00:37.521Z,3.88
2023-02-03T01:03:05.417Z,4.53
2023-02-03T01:05:31.960Z,5.63
2023-02-03T01:07:58.385Z,4.75
2023-02-03T01:10:25.335Z,7.05
2023-02-03T01:12:51.955Z,7.32
2023-02-03T01:15:18.581Z,5.55
2023-02-03T01:17:45.073Z,3.97
2023-02-03T01:20:13.897Z,5.90
2023-02-03T01:22:40.452Z,5.13
2023-02-03T01:25:07.371Z,6.65
2023-02-03T01:27:34.028Z,5.25
2023-02-03T01:30:00.594Z,6.10
2023-02-03T01:32:27.074Z,4.72
2023-02-03T01:34:53.568Z,5.00
2023-02-03T01:37:21.499Z,4.05
2023-02-03T01:39:48.014Z,4.85
2023-02-03T01:42:14.845Z,7.32
2023-02-03T01:44:43.437Z,5.18
2023-02-03T01:47:16.260Z,5.72
2023-02-03T01:49:44.432Z,5.95
2023-02-03T01:52:11.526Z,5.32
2023-02-03T01:54:41.314Z,6.28
2023-02-03T01:57:11.803Z,4.85
2023-02-03T01:59:38.331Z,3.97
2023-02-03T02:02:05.592Z,5.47
2023-02-03T02:04:38.814Z,6.40
2023-02-03T02:07:06.385Z,5.63
2023-02-03T02:09:32.859Z,4.22
2023-02-03T02:12:00.660Z,5.70
2023-02-03T02:14:27.185Z,5.30
2023-02-03T02:16:58.272Z,4.38
2023-02-03T02:19:51.566Z,5.47
2023-02-03T02:22:20.764Z,4.95
2023-02-03T02:25:02.716Z,5.55
2023-02-03T02:27:44.097Z,5.30
2023-02-03T02:30:37.506Z,3.78
2023-02-03T02:33:10.616Z,6.68
2023-02-03T02:35:50.810Z,5.00
2023-02-03T02:38:23.580Z,7.15
2023-02-03T02:40:51.732Z,5.00
2023-02-03T02:43:20.852Z,7.53
2023-02-03T02:45:49.385Z,4.68
2023-02-03T02:48:20.613Z,5.05
2023-02-03T02:50:49.171Z,5.65
2023-02-03T02:53:17.672Z,6.93
2023-02-03T02:55:45.245Z,6.20
2023-02-03T02:58:14.116Z,6.13
2023-02-03T03:00:41.283Z,6.13
2023-02-03T03:03:12.509Z,5.63
2023-02-03T03:05:41.574Z,6.93
2023-02-03T03:08:09.135Z,4.57
2023-02-03T03:10:36.979Z,4.95
2023-02-03T03:13:05.479Z,6.13
2023-02-03T03:15:33.192Z,4.50
2023-02-03T03:18:01.715Z,5.38
2023-02-03T03:20:29.001Z,4.75
2023-02-03T03:22:59.325Z,2.85
2023-02-03T03:25:28.313Z,5.70
2023-02-03T03:27:57.048Z,3.42
2023-02-03T03:30:25.807Z,4.65
2023-02-03T03:32:52.887Z,4.68
2023-02-03T03:35:19.747Z,4.03
2023-02-03T03:37:50.133Z,4.70
2023-02-03T03:40:20.362Z,4.85
2023-02-03T03:42:50.297Z,4.32
2023-02-03T03:45:19.287Z,3.85
2023-02-03T03:47:47.811Z,4.18
2023-02-03T03:50:16.087Z,4.63
2023-02-03T03:52:43.697Z,4.18
2023-02-03T03:55:11.492Z,5.13
2023-02-03T03:57:40.508Z,5.78
2023-02-03T04:00:10.797Z,5.00
2023-02-03T04:02:38.639Z,2.22
2023-02-03T04:05:05.879Z,3.85
2023-02-03T04:07:39.099Z,4.70
2023-02-03T04:10:07.678Z,3.50
2023-02-03T04:12:34.062Z,3.10
2023-02-03T04:15:01.921Z,3.65
2023-02-03T04:17:28.396Z,2.97
2023-02-03T04:19:54.822Z,2.90
2023-02-03T04:22:21.274Z,3.67
2023-02-03T04:24:47.724Z,5.97
2023-02-03T04:27:14.191Z,4.43
2023-02-03T04:29:40.675Z,3.30
2023-02-03T04:32:08.604Z,4.18
2023-02-03T04:34:35.103Z,4.68
2023-02-03T04:37:01.667Z,5.68
2023-02-03T04:39:28.267Z,3.90
2023-02-03T04:41:54.764Z,4.82
2023-02-03T04:44:21.288Z,4.47
2023-02-03T04:46:47.833Z,4.78
2023-02-03T04:49:17.698Z,3.50
2023-02-03T04:51:44.326Z,3.72
2023-02-03T04:54:11.215Z,7.82
2023-02-03T04:56:37.767Z,7.20
2023-02-03T04:59:04.248Z,4.30
2023-02-03T05:01:30.779Z,3.45
2023-02-03T05:03:57.256Z,3.47
2023-02-03T05:06:25.984Z,3.90
2023-02-03T05:08:52.516Z,5.75
2023-02-03T05:11:19.089Z,5.43
2023-02-03T05:13:45.594Z,4.13
2023-02-03T05:16:12.083Z,3.45
2023-02-03T05:18:38.652Z,3.75
2023-02-03T05:21:05.531Z,5.85
2023-02-03T05:23:35.515Z,4.20
2023-02-03T05:26:03.044Z,4.38
2023-02-03T05:28:29.505Z,6.00
2023-02-03T05:30:57.847Z,4.25
2023-02-03T05:33:24.346Z,4.78
2023-02-03T05:35:50.846Z,4.50
2023-02-03T05:38:17.393Z,4.70
2023-02-03T05:41:05.799Z,3.95
2023-02-03T05:43:32.258Z,5.18
2023-02-03T05:45:59.880Z,3.90
2023-02-03T05:48:26.390Z,3.75
2023-02-03T05:50:52.869Z,4.00
2023-02-03T05:53:19.342Z,4.25
2023-02-03T05:55:47.265Z,4.97
2023-02-03T05:58:13.751Z,5.38
2023-02-03T06:00:40.250Z,5.25
2023-02-03T06:03:06.815Z,3.95
2023-02-03T06:05:34.361Z,6.93
2023-02-03T06:08:01.047Z,3.38
2023-02-03T06:10:27.857Z,5.85
2023-02-03T06:12:55.780Z,3.42
2023-02-03T06:15:22.439Z,4.40
2023-02-03T06:17:49.445Z,4.45
2023-02-03T06:20:16.948Z,5.93
2023-02-03T06:22:43.452Z,6.50
2023-02-03T06:25:12.913Z,4.28
2023-02-03T06:27:39.951Z,3.95
2023-02-03T06:30:08.672Z,4.13
2023-02-03T06:32:35.164Z,4.20
2023-02-03T06:35:01.677Z,4.55
2023-02-03T06:37:28.219Z,2.97
2023-02-03T06:39:54.945Z,5.50
2023-02-03T06:42:21.445Z,6.05
2023-02-03T06:44:47.914Z,4.30
2023-02-03T06:47:15.789Z,5.30
2023-02-03T06:49:42.236Z,3.67
2023-02-03T06:52:08.778Z,3.58
2023-02-03T06:54:35.235Z,4.57
2023-02-03T06:57:01.766Z,2.72
2023-02-03T06:59:28.213Z,5.72
2023-02-03T07:01:55.099Z,2.85
2023-02-03T07:04:23.059Z,3.35
2023-02-03T07:06:49.528Z,4.50
2023-02-03T07:09:16.111Z,4.22
2023-02-03T07:11:42.568Z,4.00
2023-02-03T07:14:09.085Z,6.43
2023-02-03T07:16:37.514Z,4.13
2023-02-03T07:19:04.163Z,2.53
2023-02-03T07:21:32.136Z,3.67
2023-02-03T07:23:58.785Z,4.20
2023-02-03T07:26:26.475Z,3.90
2023-02-03T07:28:52.995Z,4.30
2023-02-03T07:31:19.585Z,5.25
2023-02-03T07:33:46.194Z,4.43
2023-02-03T07:36:12.678Z,3.53
2023-02-03T07:38:40.512Z,2.13
2023-02-03T07:41:07.094Z,3.22
2023-02-03T07:43:33.673Z,3.33
2023-02-03T07:46:01.748Z,3.15
2023-02-03T07:48:28.242Z,5.65
2023-02-03T07:50:54.948Z,2.67
2023-02-03T07:53:21.464Z,4.53
2023-02-03T07:55:49.372Z,3.13
2023-02-03T07:58:17.073Z,6.88
2023-02-03T08:00:43.811Z,4.65
2023-02-03T08:03:10.389Z,2.97
2023-02-03T08:05:37.007Z,4.38
2023-02-03T08:08:03.548Z,2.00
2023-02-03T08:10:30.574Z,49.47
2023-02-03T08:12:58.582Z,3.10
2023-02-03T08:15:25.031Z,3.72
2023-02-03T08:17:52.011Z,5.13
2023-02-03T08:20:20.494Z,4.40
2023-02-03T08:22:47.059Z,8.07
2023-02-03T08:25:13.554Z,3.00
2023-02-03T08:27:40.546Z,4.45
2023-02-03T08:30:11.429Z,2.45
2023-02-03T08:32:37.952Z,2.20
2023-02-03T08:35:04.909Z,4.38
2023-02-03T08:37:32.543Z,3.92
2023-02-03T08:39:59.781Z,3.67
2023-02-03T08:42:26.243Z,2.45
2023-02-03T08:44:52.802Z,5.18
2023-02-03T08:47:20.689Z,4.32
2023-02-03T08:49:47.517Z,3.55
2023-02-03T08:52:14.316Z,3.75
2023-02-03T08:54:43.574Z,4.60
2023-02-03T08:57:10.304Z,3.92
2023-02-03T08:59:38.495Z,2.30
2023-02-03T09:02:05.874Z,10.70
2023-02-03T09:04:34.001Z,6.63
2023-02-03T09:07:04.443Z,4.40
2023-02-03T09:09:31.005Z,5.47
2023-02-03T09:12:02.148Z,5.00
2023-02-03T09:14:29.198Z,2.25
2023-02-03T09:16:56.687Z,4.93
2023-02-03T09:19:23.302Z,3.35
2023-02-03T09:21:51.397Z,2.88
2023-02-03T09:24:18.945Z,4.25
2023-02-03T09:26:45.806Z,2.20
2023-02-03T09:29:12.459Z,2.88
2023-02-03T09:31:39.265Z,5.55
2023-02-03T09:34:05.975Z,6.22
2023-02-03T09:36:32.512Z,3.53
2023-02-03T09:39:00.481Z,4.82
2023-02-03T09:41:35.118Z,4.03
2023-02-03T09:44:06.087Z,3.92
2023-02-03T09:46:35.049Z,2.33
2023-02-03T09:49:04.688Z,5.10
2023-02-03T09:51:34.617Z,4.80
2023-02-03T09:54:04.854Z,6.75
2023-02-03T09:56:32.530Z,3.00
2023-02-03T09:59:02.412Z,4.63
2023-02-03T10:01:38.152Z,5.35
2023-02-03T10:04:11.920Z,3.28
2023-02-03T10:06:41.828Z,3.10
2023-02-03T10:09:16.237Z,2.88
2023-02-03T10:11:53.976Z,4.35
2023-02-03T10:14:28.808Z,3.42
2023-02-03T10:17:00.337Z,5.18
2023-02-03T10:19:29.891Z,6.18
2023-02-03T10:21:58.308Z,6.95
2023-02-03T10:24:27.636Z,5.57
2023-02-03T10:26:54.458Z,5.05
2023-02-03T10:29:23.666Z,3.17
2023-02-03T10:31:50.390Z,3.80
2023-02-03T10:34:17.805Z,5.30
2023-02-03T10:36:48.644Z,3.58
2023-02-03T10:39:19.529Z,3.67
2023-02-03T10:41:47.495Z,4.63
2023-02-03T10:44:14.442Z,4.88
2023-02-03T10:46:42.317Z,2.63
2023-02-03T10:49:09.827Z,6.47
2023-02-03T10:51:37.604Z,3.15
2023-02-03T10:54:04.395Z,6.68
2023-02-03T10:56:32.561Z,3.85
2023-02-03T10:59:00.904Z,4.28
2023-02-03T11:01:28.810Z,4.68
2023-02-03T11:03:58.103Z,3.47
2023-02-03T11:06:25.003Z,9.98
2023-02-03T11:08:51.899Z,5.72
2023-02-03T11:11:23.237Z,5.25
2023-02-03T11:14:12.057Z,3.20
2023-02-03T11:16:40.129Z,2.67
2023-02-03T11:19:10.230Z,2.92
2023-02-03T11:21:42.527Z,3.33
2023-02-03T11:24:11.677Z,3.00
2023-02-03T11:26:41.867Z,3.13
2023-02-03T11:29:16.729Z,3.47
2023-02-03T11:31:47.022Z,5.35
2023-02-03T11:34:15.844Z,5.00
2023-02-03T11:36:42.338Z,3.67
2023-02-03T11:39:16.846Z,2.60
2023-02-03T11:41:43.485Z,3.67
2023-02-03T11:44:16.834Z,3.97
2023-02-03T11:46:44.582Z,3.28
2023-02-03T11:49:16.956Z,3.50
2023-02-03T11:51:46.251Z,3.80
2023-02-03T11:54:17.019Z,4.50
2023-02-03T11:56:56.907Z,2.53
2023-02-03T11:59:30.566Z,2.00
2023-02-03T12:02:14.957Z,4.82
2023-02-03T12:04:50.340Z,4.95
2023-02-03T12:07:31.777Z,4.93
2023-02-03T12:10:00.248Z,3.45
2023-02-03T12:12:34.820Z,2.42
2023-02-03T12:15:07.618Z,2.33
2023-02-03T12:17:44.184Z,2.17
2023-02-03T12:20:26.393Z,2.20
2023-02-03T12:22:57.227Z,1.75
2023-02-03T12:25:32.992Z,2.92
2023-02-03T12:28:06.062Z,2.63
2023-02-03T12:30:35.452Z,3.50
2023-02-03T12:33:04.539Z,4.38
2023-02-03T12:35:33.541Z,2.83
2023-02-03T12:38:03.089Z,4.45
2023-02-03T12:40:34.883Z,3.40
2023-02-03T12:43:06.692Z,3.17
2023-02-03T12:45:36.728Z,3.28
2023-02-03T12:48:06.277Z,1.50
2023-02-03T12:50:35.421Z,3.10
2023-02-03T12:53:06.095Z,2.55
2023-02-03T12:55:34.888Z,2.67
2023-02-03T12:58:03.631Z,2.33
2023-02-03T13:00:44.319Z,2.63
2023-02-03T13:03:13.949Z,3.08
2023-02-03T13:05:43.709Z,5.38
2023-02-03T13:08:16.601Z,6.57
2023-02-03T13:10:48.710Z,2.50
2023-02-03T13:13:17.567Z,11.40
2023-02-03T13:15:46.649Z,46.38
2023-02-03T13:18:18.596Z,4.35
2023-02-03T13:20:45.435Z,3.65
2023-02-03T13:23:13.372Z,2.97
2023-02-03T13:25:45.940Z,3.10
2023-02-03T13:28:16.819Z,3.97
2023-02-03T13:31:13.209Z,5.13
2023-02-03T13:33:46.688Z,3.30
2023-02-03T13:36:27.999Z,5.00
2023-02-03T13:39:13.140Z,3.00
2023-02-03T13:41:42.784Z,3.60
2023-02-03T13:44:12.855Z,2.78
2023-02-03T13:46:41.170Z,5.30
2023-02-03T13:49:08.903Z,4.45
2023-02-03T13:51:37.244Z,4.60
2023-02-03T13:54:05.520Z,3.13
2023-02-03T13:56:32.575Z,1.85
2023-02-03T13:59:00.650Z,3.97
2023-02-03T14:01:28.447Z,3.72
2023-02-03T14:03:56.580Z,2.78
2023-02-03T14:06:57.275Z,2.50
2023-02-03T14:09:34.631Z,3.05
2023-02-03T14:12:19.869Z,7.05
2023-02-03T14:15:05.055Z,18.65
2023-02-03T14:18:06.940Z,3.75
2023-02-03T14:20:42.292Z,2.92
2023-02-03T14:23:11.255Z,2.83
2023-02-03T14:25:40.306Z,4.10
2023-02-03T14:28:09.063Z,4.25
2023-02-03T14:31:01.607Z,6.28
2023-02-03T14:33:43.141Z,5.95
2023-02-03T14:36:24.535Z,6.28
2023-02-03T14:38:55.453Z,6.90
2023-02-03T14:41:26.613Z,7.82
2023-02-03T14:43:57.813Z,7.53
2023-02-03T14:46:45.323Z,6.72
2023-02-03T14:49:18.441Z,8.45
2023-02-03T14:51:54.574Z,30.23
2023-02-03T14:54:29.955Z,9.63
2023-02-03T14:57:16.068Z,11.18
2023-02-03T14:59:44.605Z,8.95
2023-02-03T15:02:14.744Z,9.98
2023-02-03T15:04:41.264Z,7.90
2023-02-03T15:07:08.040Z,10.70
2023-02-03T15:09:38.796Z,9.10
2023-02-03T15:12:16.892Z,8.00
2023-02-03T15:14:43.468Z,7.25
2023-02-03T15:17:12.354Z,8.20
2023-02-03T15:19:39.896Z,9.25
2023-02-03T15:22:18.123Z,9.63
2023-02-03T15:24:46.015Z,10.48
2023-02-03T15:27:20.730Z,9.88
2023-02-03T15:29:47.180Z,9.07
2023-02-03T15:32:16.161Z,8.98
2023-02-03T15:34:43.633Z,8.65
2023-02-03T15:37:13.632Z,6.88
2023-02-03T15:39:45.948Z,10.45
2023-02-03T15:42:16.736Z,9.52
2023-02-03T15:44:46.684Z,6.75
2023-02-03T15:47:19.707Z,9.52
2023-02-03T15:49:47.709Z,9.70
2023-02-03T15:52:16.503Z,8.80
2023-02-03T15:54:46.031Z,10.40
2023-02-03T15:57:20.265Z,9.88
2023-02-03T15:59:52.394Z,8.23
2023-02-03T16:02:21.018Z,10.82
2023-02-03T16:04:47.738Z,11.73
2023-02-03T16:07:18.289Z,9.38
2023-02-03T16:09:45.107Z,9.00
2023-02-03T16:12:16.955Z,9.63
2023-02-03T16:14:43.687Z,10.27
2023-02-03T16:17:24.290Z,9.40
2023-02-03T16:19:51.433Z,11.90
2023-02-03T16:22:31.626Z,9.93
2023-02-03T16:25:12.156Z,17.00
2023-02-03T16:27:40.170Z,9.38
2023-02-03T16:30:39.493Z,10.43
2023-02-03T16:33:29.819Z,9.65
2023-02-03T16:36:15.911Z,11.25
2023-02-03T16:39:03.152Z,9.70
2023-02-03T16:41:49.535Z,10.70
2023-02-03T16:44:36.138Z,14.98
2023-02-03T16:47:21.496Z,13.98
2023-02-03T16:50:06.669Z,12.73
2023-02-03T16:52:33.118Z,11.32
2023-02-03T16:54:59.749Z,11.32
2023-02-03T16:57:26.260Z,12.63
2023-02-03T16:59:54.749Z,13.95
2023-02-03T17:02:21.254Z,13.27
2023-02-03T17:04:47.757Z,12.60
2023-02-03T17:07:14.295Z,12.27
2023-02-03T17:09:40.872Z,12.45
2023-02-03T17:12:07.469Z,14.75
2023-02-03T17:14:33.953Z,10.73
2023-02-03T17:17:01.821Z,11.52
2023-02-03T17:19:28.347Z,12.32
2023-02-03T17:21:56.161Z,10.32
2023-02-03T17:24:22.686Z,11.07
2023-02-03T17:26:49.133Z,10.63
2023-02-03T17:29:15.748Z,8.88
2023-02-03T17:31:42.404Z,13.13
2023-02-03T17:34:10.266Z,12.00
2023-02-03T17:36:36.779Z,16.65
2023-02-03T17:55:29.470Z,17.98
2023-02-03T17:57:56.176Z,14.35
2023-02-03T18:00:22.792Z,15.45
2023-02-03T18:02:49.755Z,13.20
2023-02-03T18:05:19.286Z,19.02
2023-02-03T18:07:45.779Z,13.07
2023-02-03T18:10:12.415Z,13.85
2023-02-03T18:12:39.020Z,17.52
2023-02-03T18:15:05.661Z,15.23
2023-02-03T18:17:32.183Z,16.60
2023-02-03T18:20:00.633Z,13.25
2023-02-03T18:22:28.879Z,19.73
2023-02-03T18:24:55.684Z,12.95
2023-02-03T18:27:22.359Z,14.38
2023-02-03T18:29:48.954Z,15.13
2023-02-03T18:32:15.863Z,17.05
2023-02-03T18:34:42.437Z,13.75
2023-02-03T18:37:08.948Z,18.17
2023-02-03T18:39:36.880Z,13.65
2023-02-03T18:42:03.466Z,16.10
2023-02-03T18:44:31.606Z,15.13
2023-02-03T18:47:06.525Z,18.52
2023-02-03T18:49:34.022Z,13.45
2023-02-03T18:52:00.518Z,15.60
2023-02-03T18:54:29.445Z,14.82
2023-02-03T18:56:59.010Z,19.08
2023-02-03T18:59:25.853Z,13.85
2023-02-03T19:01:52.449Z,14.05
2023-02-03T19:04:18.898Z,20.17
2023-02-03T19:06:45.543Z,19.75
2023-02-03T19:09:12.583Z,11.82
2023-02-03T19:11:39.056Z,18.55
2023-02-03T19:14:07.009Z,69.25
2023-02-03T19:16:33.654Z,25.70
2023-02-03T19:19:00.696Z,21.98
2023-02-03T19:21:27.236Z,17.00
2023-02-03T19:23:53.733Z,15.55
2023-02-03T19:26:20.194Z,13.80
2023-02-03T19:28:46.710Z,19.08
2023-02-03T19:31:17.996Z,14.77
2023-02-03T19:33:44.762Z,21.48
2023-02-03T19:36:11.718Z,17.90
2023-02-03T19:38:38.305Z,21.30
2023-02-03T19:41:04.922Z,19.15
2023-02-03T19:43:31.722Z,15.70
2023-02-03T19:45:58.687Z,16.83
2023-02-03T19:48:26.648Z,15.70
2023-02-03T19:50:53.142Z,17.20
2023-02-03T19:53:19.645Z,17.17
2023-02-03T19:55:46.537Z,16.95
2023-02-03T19:58:13.923Z,16.30
2023-02-03T20:00:40.592Z,19.88
2023-02-03T20:03:07.138Z,22.70
2023-02-03T20:05:35.988Z,18.90
2023-02-03T20:08:02.654Z,18.40
2023-02-03T20:10:29.463Z,58.85
2023-02-03T20:12:56.079Z,18.35
2023-02-03T20:15:22.667Z,17.55
2023-02-03T20:17:49.354Z,16.33
2023-02-03T20:20:16.346Z,12.98
2023-02-03T20:22:44.283Z,15.30
2023-02-03T20:25:12.363Z,22.17
2023-02-03T20:27:39.636Z,23.20
2023-02-03T20:30:06.601Z,23.48
2023-02-03T20:32:33.162Z,15.95
2023-02-03T20:35:00.019Z,15.05
2023-02-03T20:37:26.563Z,14.25
2023-02-03T20:39:54.511Z,15.32
2023-02-03T20:42:21.048Z,15.70
2023-02-03T20:44:47.553Z,14.10
2023-02-03T20:47:14.883Z,15.10
2023-02-03T20:49:41.358Z,25.45
2023-02-03T20:52:12.692Z,19.38
2023-02-03T20:54:39.465Z,16.40
2023-02-03T20:57:13.657Z,21.67
2023-02-03T20:59:40.171Z,16.63
2023-02-03T21:02:17.734Z,20.60
2023-02-03T21:04:59.627Z,17.42
2023-02-03T21:07:27.579Z,13.18
2023-02-03T21:09:54.503Z,20.27
2023-02-03T21:12:22.450Z,21.05
2023-02-03T21:14:49.147Z,17.77
2023-02-03T21:17:19.624Z,18.77
2023-02-03T21:19:46.311Z,17.90
2023-02-03T21:22:18.183Z,18.50
2023-02-03T21:24:49.361Z,23.02
2023-02-03T21:27:22.797Z,22.02
2023-02-03T21:29:50.117Z,17.80
2023-02-03T21:32:16.537Z,15.18
2023-02-03T21:34:43.593Z,18.75
2023-02-03T21:37:14.655Z,18.60
2023-02-03T21:39:41.760Z,18.95
2023-02-03T21:42:39.787Z,14.80
2023-02-03T21:45:22.432Z,15.40
2023-02-03T21:47:50.118Z,18.92
2023-02-03T21:50:26.206Z,29.05
2023-02-03T21:52:52.756Z,21.90
2023-02-03T21:55:19.309Z,21.52
2023-02-03T21:57:47.412Z,21.70
2023-02-03T22:00:34.343Z,15.68
2023-02-03T22:03:08.129Z,18.08
2023-02-03T22:08:03.033Z,23.45
2023-02-03T22:10:29.783Z,20.02
2023-02-03T22:12:56.449Z,20.67
2023-02-03T22:15:22.940Z,21.05
2023-02-03T22:17:50.374Z,19.02
2023-02-03T22:20:18.503Z,19.20
2023-02-03T22:22:44.925Z,17.50
2023-02-03T22:25:11.383Z,13.45
2023-02-03T22:27:37.949Z,21.58
2023-02-03T22:30:05.376Z,20.92
2023-02-03T22:32:31.860Z,18.83
2023-02-03T22:34:58.386Z,15.30
2023-02-03T22:37:26.349Z,18.63
2023-02-03T22:39:52.825Z,15.75
2023-02-03T22:42:19.346Z,16.60
2023-02-03T22:44:45.760Z,15.45
2023-02-03T22:47:12.199Z,20.45
2023-02-03T22:49:38.694Z,17.08
2023-02-03T22:52:05.414Z,20.45
2023-02-03T22:54:33.713Z,15.43
2023-02-03T22:57:00.152Z,15.15
2023-02-03T22:59:26.682Z,15.40
2023-02-03T23:01:53.781Z,46.55
2023-02-03T23:04:20.388Z,27.13
2023-02-03T23:06:46.843Z,18.70
2023-02-03T23:09:13.399Z,21.63
2023-02-03T23:11:41.320Z,12.52
2023-02-03T23:14:10.216Z,17.20
2023-02-03T23:16:36.897Z,22.02
2023-02-03T23:19:03.717Z,18.13
2023-02-03T23:21:30.302Z,17.23
2023-02-03T23:23:56.738Z,15.07
2023-02-03T23:26:23.322Z,10.10
2023-02-03T23:28:51.218Z,21.13
2023-02-03T23:31:17.824Z,15.18
2023-02-03T23:34:04.400Z,12.45
2023-02-03T23:36:31.164Z,17.38
2023-02-03T23:38:57.679Z,19.77
2023-02-03T23:41:24.312Z,18.40
2023-02-03T23:43:53.591Z,14.25
2023-02-03T23:46:20.159Z,15.52
2023-02-03T23:48:46.675Z,13.93
2023-02-03T23:51:13.092Z,15.95
2023-02-03T23:53:39.586Z,15.88
2023-02-03T23:56:06.196Z,17.95
2023-02-03T23:58:32.773Z,18.13
